Time;durP1;ratioP1;P1;durP2;ratioP2;P2;SDS_P1;SDS_P2;PMS_P1;PMS_P2;Temp;Humidity;BMP_temperature;BMP_pressure;BME280_temperature;BME280_humidity;BME280_pressure;Samples;Min_cycle;Max_cycle;Signal;HPM_P1;HPM_P2
2021/01/21 00:03:28;;;;;;;5.53;2.22;;;;;;;11.08;58.57;98227.13;7841898;36;21359;-70
2021/01/21 00:08:31;;;;;;;2.63;2.05;;;;;;;11.14;58.31;98234.50;7842356;36;20190;-70
2021/01/21 00:13:34;;;;;;;3.78;2.30;;;;;;;11.08;58.35;98219.94;7849161;36;20476;-70
2021/01/21 00:18:37;;;;;;;4.88;2.75;;;;;;;11.12;58.44;98199.09;7830788;36;20451;-70
2021/01/21 00:23:39;;;;;;;5.00;2.10;;;;;;;11.25;58.02;98198.66;7851146;36;20227;-69
2021/01/21 00:28:52;;;;;;;2.75;2.40;;;;;;;11.32;57.94;98194.31;7830891;36;20936;-70
2021/01/21 00:33:55;;;;;;;4.63;2.42;;;;;;;11.33;58.07;98201.38;7846483;36;20276;-70
2021/01/21 00:38:58;;;;;;;4.28;2.42;;;;;;;11.35;58.17;98183.31;7823943;36;20945;-70
2021/01/21 00:44:01;;;;;;;5.80;2.30;;;;;;;11.46;57.40;98171.47;7845415;36;20855;-70
2021/01/21 00:49:04;;;;;;;4.28;2.70;;;;;;;11.33;57.32;98161.28;7845954;36;20453;-70
2021/01/21 00:54:07;;;;;;;4.10;2.40;;;;;;;11.40;57.39;98159.59;7845543;36;21002;-70
2021/01/21 00:59:12;;;;;;;2.33;1.80;;;;;;;11.44;57.43;98139.59;7825238;36;20630;-70
2021/01/21 01:04:15;;;;;;;5.20;2.40;;;;;;;11.43;57.50;98135.22;7850925;36;20540;-70
2021/01/21 01:09:19;;;;;;;3.65;2.25;;;;;;;11.49;57.50;98131.06;7832937;36;20547;-69
2021/01/21 01:14:23;;;;;;;4.32;2.13;;;;;;;11.72;56.66;98099.19;7830677;36;20196;-69
2021/01/21 01:19:26;;;;;;;3.63;2.42;;;;;;;11.68;56.58;98103.19;7850296;36;20572;-69
2021/01/21 01:24:28;;;;;;;1.95;1.63;;;;;;;11.76;56.38;98103.19;7850278;36;20150;-69
2021/01/21 01:29:32;;;;;;;2.88;2.47;;;;;;;11.71;56.36;98097.50;7828367;36;20469;-69
2021/01/21 01:34:37;;;;;;;3.92;2.38;;;;;;;11.80;56.24;98080.47;7828815;36;20442;-69
2021/01/21 01:39:51;;;;;;;4.65;1.92;;;;;;;11.66;56.86;98062.41;7853229;36;20493;-69
2021/01/21 01:45:17;;;;;;;4.65;2.30;;;;;;;11.71;56.66;98054.69;7831368;36;20190;-69
2021/01/21 01:50:25;;;;;;;4.05;2.30;;;;;;;11.72;56.44;98046.53;7832034;36;20489;-69
2021/01/21 01:55:29;;;;;;;2.63;1.80;;;;;;;11.71;56.34;98034.16;7832030;36;20545;-69
2021/01/21 02:01:02;;;;;;;6.68;1.77;;;;;;;11.61;56.56;98011.28;7833345;36;20246;-69
2021/01/21 02:06:08;;;;;;;6.65;2.22;;;;;;;11.69;56.71;98006.75;7839762;36;20459;-69
2021/01/21 02:11:28;;;;;;;3.38;2.00;;;;;;;11.74;55.85;97982.19;7832063;36;20154;-69
2021/01/21 02:17:05;;;;;;;2.47;2.00;;;;;;;11.63;55.81;97947.72;7852602;36;21133;-69
2021/01/21 02:23:05;;;;;;;3.78;1.73;;;;;;;11.48;56.45;97958.28;7833742;36;20501;-69
2021/01/21 02:28:44;;;;;;;2.83;1.95;;;;;;;11.57;55.84;97931.38;7822052;36;20490;-69
2021/01/21 02:33:56;;;;;;;2.13;1.88;;;;;;;11.40;56.00;97919.00;7831180;36;20769;-72
2021/01/21 02:39:04;;;;;;;2.33;1.80;;;;;;;11.48;56.06;97913.66;7831458;36;20493;-69
2021/01/21 02:44:07;;;;;;;6.60;2.50;;;;;;;11.40;55.83;97899.47;7832905;36;20455;-70
2021/01/21 02:49:12;;;;;;;3.72;1.73;;;;;;;11.42;56.19;97882.25;7832712;36;20189;-70
2021/01/21 02:54:37;;;;;;;2.30;1.77;;;;;;;11.28;56.57;97885.63;7831311;36;20972;-69
2021/01/21 02:59:41;;;;;;;2.80;2.05;;;;;;;11.10;56.38;97881.25;7851914;36;20700;-71
2021/01/21 03:04:53;;;;;;;2.65;1.88;;;;;;;11.04;56.25;97857.06;7852784;36;20416;-70
2021/01/21 03:09:56;;;;;;;3.45;1.70;;;;;;;11.20;55.71;97848.22;7851586;36;20205;-71
2021/01/21 03:14:59;;;;;;;1.67;1.58;;;;;;;10.96;56.34;97844.53;7843802;36;20797;-71
2021/01/21 03:20:14;;;;;;;2.45;1.70;;;;;;;10.96;55.97;97833.84;7819905;36;20452;-71
2021/01/21 03:25:17;;;;;;;2.80;1.75;;;;;;;10.95;55.90;97831.34;7843321;36;20182;-71
2021/01/21 03:30:26;;;;;;;2.90;1.95;;;;;;;10.88;56.14;97821.31;7826857;36;20204;-70
2021/01/21 03:35:29;;;;;;;3.88;1.90;;;;;;;10.94;56.07;97825.16;7827002;36;20151;-71
2021/01/21 03:40:32;;;;;;;1.63;1.25;;;;;;;10.81;56.63;97819.50;7851901;36;21085;-70
2021/01/21 03:45:35;;;;;;;3.13;1.67;;;;;;;10.65;56.63;97815.81;7828792;36;20178;-70
2021/01/21 03:50:45;;;;;;;3.53;1.92;;;;;;;10.68;56.63;97811.97;7829218;36;20507;-71
2021/01/21 03:55:48;;;;;;;1.98;1.80;;;;;;;10.64;56.58;97816.84;7850059;36;20540;-71
2021/01/21 04:00:53;;;;;;;2.22;2.00;;;;;;;10.65;57.12;97805.13;7833695;36;20710;-71
2021/01/21 04:05:56;;;;;;;1.83;1.50;;;;;;;10.88;56.56;97799.13;7833193;36;20444;-70
2021/01/21 04:11:00;;;;;;;1.40;1.20;;;;;;;10.95;56.15;97783.28;7832685;36;20460;-71
2021/01/21 04:16:12;;;;;;;2.90;1.75;;;;;;;11.07;56.61;97763.22;7830346;36;20522;-70
2021/01/21 04:21:16;;;;;;;2.97;1.80;;;;;;;11.17;55.96;97771.88;7829861;36;20735;-70
2021/01/21 04:26:21;;;;;;;1.77;1.42;;;;;;;11.15;56.06;97752.50;7830386;36;20464;-70
2021/01/21 04:31:29;;;;;;;3.58;1.70;;;;;;;11.11;56.30;97743.19;7830627;36;20574;-70
2021/01/21 04:36:40;;;;;;;2.47;1.52;;;;;;;11.33;55.58;97745.13;7831531;36;20193;-70
2021/01/21 04:41:46;;;;;;;1.75;1.52;;;;;;;11.57;55.25;97749.56;7832635;36;22090;-70
2021/01/21 04:47:01;;;;;;;1.52;1.42;;;;;;;11.97;54.23;97731.66;7830706;36;20166;-70
2021/01/21 04:52:18;;;;;;;3.72;1.75;;;;;;;12.07;56.33;97730.63;7811142;36;20452;-70
2021/01/21 04:57:31;;;;;;;2.50;1.60;;;;;;;11.21;58.81;97726.94;7829832;36;20261;-70
2021/01/21 05:02:50;;;;;;;1.55;1.45;;;;;;;11.60;58.20;97740.38;7833928;36;20150;-70
2021/01/21 05:08:17;;;;;;;1.83;1.50;;;;;;;11.82;57.43;97689.75;7853404;36;21527;-70
2021/01/21 05:13:39;;;;;;;1.83;1.20;;;;;;;12.27;55.72;97698.88;7864083;36;20452;-70
2021/01/21 05:19:03;;;;;;;2.25;1.02;;;;;;;12.39;54.16;97716.16;7849963;36;21605;-70
2021/01/21 05:24:26;;;;;;;2.85;1.27;;;;;;;12.82;53.62;97687.00;7849115;36;20569;-70
2021/01/21 05:29:49;;;;;;;1.45;1.35;;;;;;;12.91;52.97;97691.25;7848612;36;20573;-70
2021/01/21 05:34:52;;;;;;;1.85;1.45;;;;;;;12.84;53.23;97714.47;7826932;36;20987;-70
2021/01/21 05:40:12;;;;;;;1.23;1.00;;;;;;;12.82;53.35;97679.81;7834851;36;20453;-69
2021/01/21 05:45:39;;;;;;;1.40;1.30;;;;;;;12.98;53.28;97675.31;7831758;36;20555;-69
2021/01/21 05:50:47;;;;;;;2.90;1.42;;;;;;;12.77;53.48;97676.84;7832650;36;20166;-69
2021/01/21 05:55:51;;;;;;;1.38;1.10;;;;;;;13.17;53.19;97664.03;7842133;36;20798;-69
2021/01/21 06:00:57;;;;;;;1.92;1.40;;;;;;;13.00;53.32;97674.09;7834952;36;20480;-69
2021/01/21 06:06:10;;;;;;;1.10;1.00;;;;;;;12.97;54.72;97666.44;7835715;36;20447;-69
2021/01/21 06:11:14;;;;;;;2.53;1.55;;;;;;;12.53;59.10;97664.50;7866088;36;20459;-69
2021/01/21 06:16:17;;;;;;;3.80;1.17;;;;;;;12.33;59.07;97652.66;7867828;36;20460;-70
2021/01/21 06:21:25;;;;;;;1.42;1.02;;;;;;;12.31;57.85;97657.34;7852502;36;20201;-70
2021/01/21 06:26:43;;;;;;;2.05;1.17;;;;;;;12.90;56.97;97649.41;7843492;36;20308;-70
2021/01/21 06:31:50;;;;;;;3.85;1.50;;;;;;;12.79;56.30;97656.06;7860850;36;21794;-70
2021/01/21 06:37:00;;;;;;;0.93;0.93;;;;;;;12.99;55.73;97671.59;7858505;36;20444;-70
2021/01/21 06:42:05;;;;;;;2.30;1.60;;;;;;;12.85;56.01;97676.75;7863004;36;20471;-70
2021/01/21 06:47:09;;;;;;;1.65;1.35;;;;;;;13.07;55.81;97660.78;7869074;36;22425;-70
2021/01/21 06:52:13;;;;;;;1.52;1.20;;;;;;;12.81;59.08;97737.09;7872153;36;20668;-70
2021/01/21 06:57:45;;;;;;;1.38;0.88;;;;;;;10.14;74.71;97911.06;7871730;36;20163;-73
2021/01/21 07:02:49;;;;;;;0.93;0.93;;;;;;;7.76;81.70;97929.31;7871092;36;20474;-70
2021/01/21 07:08:04;;;;;;;0.50;0.50;;;;;;;7.37;81.92;97986.16;7893725;36;21778;-71
2021/01/21 07:13:10;;;;;;;0.55;0.55;;;;;;;7.39;81.32;97994.84;7883550;36;20864;-71
2021/01/21 07:18:16;;;;;;;0.60;0.60;;;;;;;7.05;80.22;98041.22;7869124;36;20182;-71
2021/01/21 07:23:20;;;;;;;0.68;0.68;;;;;;;6.88;78.45;98034.78;7848918;36;20293;-71
2021/01/21 07:28:23;;;;;;;0.70;0.70;;;;;;;7.05;77.95;98037.75;7870222;36;20453;-70
2021/01/21 07:33:31;;;;;;;0.70;0.70;;;;;;;7.14;76.24;98039.56;7873045;36;20624;-69
2021/01/21 07:38:49;;;;;;;0.70;0.70;;;;;;;7.46;74.09;98027.81;7873721;36;20149;-70
2021/01/21 07:43:56;;;;;;;1.45;1.15;;;;;;;7.50;72.57;98008.81;7876152;36;20629;-70
2021/01/21 07:49:23;;;;;;;0.98;0.70;;;;;;;7.60;70.84;98046.00;7869816;36;21195;-69
2021/01/21 07:54:25;;;;;;;0.65;0.65;;;;;;;7.60;70.64;98101.81;7864377;36;20493;-69
2021/01/21 07:59:29;;;;;;;0.80;0.80;;;;;;;7.85;71.09;98079.13;7868959;36;21952;-70
2021/01/21 08:04:32;;;;;;;1.20;0.70;;;;;;;7.35;70.11;98104.03;7875231;36;21054;-70
2021/01/21 08:09:35;;;;;;;1.15;0.80;;;;;;;7.68;70.51;98051.44;7835722;36;20151;-70
2021/01/21 08:14:38;;;;;;;1.95;1.15;;;;;;;7.70;68.12;98086.69;7875595;36;20202;-70
2021/01/21 08:19:41;;;;;;;3.22;1.05;;;;;;;7.80;68.57;98097.31;7878609;36;20489;-69
2021/01/21 08:25:05;;;;;;;1.20;1.02;;;;;;;7.93;67.98;98089.91;7873919;36;20659;-69
2021/01/21 08:30:19;;;;;;;1.80;1.25;;;;;;;7.93;67.55;98092.56;7873429;36;21820;-69
2021/01/21 08:35:24;;;;;;;1.00;0.80;;;;;;;8.08;67.43;98113.38;7875170;36;20824;-69
2021/01/21 08:40:28;;;;;;;0.65;0.65;;;;;;;8.12;66.33;98086.38;7874552;36;21764;-69
2021/01/21 08:45:32;;;;;;;0.80;0.80;;;;;;;8.31;66.24;98136.03;7878665;36;20166;-69
2021/01/21 08:50:39;;;;;;;0.70;0.70;;;;;;;8.31;65.97;98154.66;7844363;36;20187;-69
2021/01/21 08:55:44;;;;;;;0.90;0.90;;;;;;;8.48;65.59;98173.56;7841743;36;20166;-69
2021/01/21 09:01:06;;;;;;;2.05;1.00;;;;;;;8.43;65.43;98187.28;7872173;36;20614;-70
2021/01/21 09:06:09;;;;;;;0.73;0.73;;;;;;;8.50;65.11;98198.19;7872632;36;20475;-70
2021/01/21 09:11:29;;;;;;;0.90;0.80;;;;;;;8.28;65.86;98178.84;7853743;36;20138;-70
2021/01/21 09:16:47;;;;;;;1.45;1.35;;;;;;;8.27;65.90;98198.47;7870707;36;20610;-70
2021/01/21 09:22:00;;;;;;;1.40;1.08;;;;;;;8.39;65.59;98208.03;7858919;36;20639;-70
2021/01/21 09:27:10;;;;;;;2.42;1.17;;;;;;;8.24;66.06;98212.06;7856564;36;20486;-69
2021/01/21 09:32:13;;;;;;;1.48;1.35;;;;;;;8.17;65.60;98217.09;7856489;36;20963;-70
2021/01/21 09:37:16;;;;;;;1.00;1.00;;;;;;;8.49;65.25;98229.28;7854186;36;20477;-69
2021/01/21 09:42:19;;;;;;;2.05;1.20;;;;;;;8.37;65.92;98241.88;7855842;36;20336;-70
2021/01/21 09:47:23;;;;;;;6.20;1.42;;;;;;;8.77;64.97;98246.19;7853571;36;20173;-69
2021/01/21 09:52:26;;;;;;;1.83;1.20;;;;;;;9.36;62.96;98249.50;7865709;36;20162;-69
2021/01/21 09:57:29;;;;;;;3.40;1.33;;;;;;;10.22;60.41;98262.47;7871657;36;20310;-69
2021/01/21 10:02:32;;;;;;;2.47;1.38;;;;;;;10.50;59.59;98249.91;7849076;36;20447;-69
2021/01/21 10:07:35;;;;;;;1.40;1.08;;;;;;;10.34;59.69;98253.28;7848579;36;20154;-69
2021/01/21 10:12:38;;;;;;;6.40;1.50;;;;;;;10.51;59.63;98262.28;7834576;36;20597;-69
2021/01/21 10:17:41;;;;;;;4.00;1.23;;;;;;;10.30;59.24;98293.78;7828315;36;20158;-69
2021/01/21 10:22:44;;;;;;;3.47;1.48;;;;;;;10.73;60.00;98252.09;7788948;36;20482;-69
2021/01/21 10:27:47;;;;;;;2.45;1.70;;;;;;;10.32;59.94;98278.47;7822395;36;20156;-69
2021/01/21 10:32:50;;;;;;;2.00;1.40;;;;;;;10.40;59.76;98259.84;7811534;36;20242;-69
2021/01/21 10:37:53;;;;;;;2.30;1.30;;;;;;;10.74;59.65;98269.78;7833131;36;21298;-69
2021/01/21 10:42:55;;;;;;;4.07;1.23;;;;;;;10.13;60.27;98260.72;7821947;36;20754;-69
2021/01/21 10:47:58;;;;;;;4.75;1.58;;;;;;;10.38;59.47;98277.84;7805141;36;20685;-69
2021/01/21 10:53:02;;;;;;;4.28;1.92;;;;;;;10.36;59.20;98272.63;7804799;36;20470;-69
2021/01/21 10:58:05;;;;;;;3.30;1.20;;;;;;;10.55;57.93;98271.66;7824476;36;20197;-69
2021/01/21 11:03:09;;;;;;;2.35;1.50;;;;;;;11.26;57.20;98261.78;7858606;36;20456;-69
2021/01/21 11:08:13;;;;;;;2.63;1.52;;;;;;;10.57;58.55;98255.47;7851598;36;20233;-69
2021/01/21 11:13:17;;;;;;;5.75;1.83;;;;;;;10.41;58.80;98275.69;7853107;36;20473;-69
2021/01/21 11:18:21;;;;;;;1.95;1.25;;;;;;;10.75;58.24;98274.13;7852931;36;21969;-69
2021/01/21 11:23:24;;;;;;;2.83;1.75;;;;;;;11.56;55.39;98253.25;7850009;36;20703;-69
2021/01/21 11:28:26;;;;;;;4.35;2.63;;;;;;;12.16;53.81;98268.34;7847582;36;20162;-69
2021/01/21 11:33:30;;;;;;;3.88;1.77;;;;;;;11.51;54.93;98257.41;7848693;36;21015;-69
2021/01/21 11:38:41;;;;;;;2.00;1.17;;;;;;;11.73;52.45;98285.41;7802577;36;20975;-68
2021/01/21 11:43:44;;;;;;;4.22;1.73;;;;;;;11.41;54.55;98278.94;7822037;36;20168;-69
2021/01/21 11:48:50;;;;;;;4.85;1.55;;;;;;;11.45;54.86;98258.06;7824207;36;20451;-69
2021/01/21 11:53:52;;;;;;;3.22;1.58;;;;;;;12.07;51.97;98244.44;7816853;36;20588;-69
2021/01/21 11:58:54;;;;;;;4.05;2.00;;;;;;;10.63;55.75;98263.69;7793398;36;20250;-69
2021/01/21 12:03:58;;;;;;;3.83;1.43;;;;;;;10.42;56.79;98249.84;7834558;36;20552;-69
2021/01/21 12:09:02;;;;;;;2.87;1.70;;;;;;;10.75;56.52;98236.75;7824247;36;20591;-69
2021/01/21 12:14:22;;;;;;;5.00;1.65;;;;;;;10.18;57.18;98240.59;7822350;36;20155;-69
2021/01/21 12:19:26;;;;;;;1.02;0.90;;;;;;;10.09;57.73;98235.31;7819297;36;20526;-69
2021/01/21 12:24:28;;;;;;;3.80;1.40;;;;;;;10.48;56.64;98246.56;7822055;36;21051;-70
2021/01/21 12:29:30;;;;;;;2.10;1.48;;;;;;;10.43;56.78;98254.19;7846343;36;20466;-69
2021/01/21 12:34:33;;;;;;;2.42;1.48;;;;;;;10.91;55.82;98263.56;7848653;36;20165;-70
2021/01/21 12:39:37;;;;;;;2.85;1.40;;;;;;;11.02;54.86;98247.28;7845359;36;20454;-68
2021/01/21 12:44:41;;;;;;;2.58;1.38;;;;;;;11.40;53.58;98230.97;7843930;36;20475;-69
2021/01/21 12:49:45;;;;;;;3.50;1.40;;;;;;;12.17;51.75;98216.47;7846537;36;20189;-69
2021/01/21 12:54:48;;;;;;;2.70;1.23;;;;;;;11.00;54.02;98219.91;7846842;36;21222;-69
2021/01/21 12:59:51;;;;;;;3.97;1.50;;;;;;;11.03;53.95;98224.94;7851469;36;20578;-70
2021/01/21 13:04:55;;;;;;;4.63;1.98;;;;;;;11.32;53.25;98205.84;7851192;36;20284;-70
2021/01/21 13:09:57;;;;;;;2.78;1.10;;;;;;;11.44;53.31;98214.44;7850071;36;20155;-70
2021/01/21 13:15:00;;;;;;;3.08;1.15;;;;;;;10.61;54.75;98206.97;7849647;36;20214;-70
2021/01/21 13:20:05;;;;;;;4.00;1.15;;;;;;;10.52;55.65;98199.88;7828168;36;20403;-70
2021/01/21 13:25:10;;;;;;;1.90;1.17;;;;;;;10.64;55.03;98203.13;7889215;36;20209;-70
2021/01/21 13:30:14;;;;;;;4.43;1.67;;;;;;;11.20;54.58;98193.78;7891998;36;20224;-70
2021/01/21 13:35:18;;;;;;;1.23;1.02;;;;;;;11.88;52.66;98184.84;7871984;36;20180;-67
2021/01/21 13:40:21;;;;;;;2.72;1.20;;;;;;;11.27;54.35;98201.97;7835526;36;20447;-70
2021/01/21 13:45:25;;;;;;;2.97;1.17;;;;;;;10.49;55.81;98205.53;7838858;36;20476;-70
2021/01/21 13:50:28;;;;;;;2.20;1.05;;;;;;;10.08;56.44;98209.66;7840166;36;20459;-70
2021/01/21 13:55:30;;;;;;;1.92;0.90;;;;;;;10.19;56.23;98210.25;7841975;36;20228;-70
2021/01/21 14:00:33;;;;;;;2.53;1.35;;;;;;;10.72;55.37;98197.00;7838789;36;20705;-70
2021/01/21 14:05:36;;;;;;;0.90;0.90;;;;;;;10.57;55.51;98202.91;7752634;36;20290;-70
2021/01/21 14:10:42;;;;;;;3.70;1.48;;;;;;;10.81;54.90;98222.78;7783903;36;20588;-70
2021/01/21 14:15:45;;;;;;;1.40;1.00;;;;;;;10.85;54.62;98205.44;7794886;36;21135;-70
2021/01/21 14:20:49;;;;;;;0.68;0.68;;;;;;;11.03;53.69;98224.09;7841615;36;20508;-70
2021/01/21 14:25:51;;;;;;;1.42;1.20;;;;;;;10.74;54.97;98211.03;7846355;36;20463;-70
2021/01/21 14:30:53;;;;;;;1.98;1.00;;;;;;;11.48;53.18;98218.47;7849774;36;20172;-70
2021/01/21 14:35:57;;;;;;;2.10;1.20;;;;;;;11.22;53.69;98215.84;7850832;36;20194;-70
2021/01/21 14:40:59;;;;;;;1.50;1.23;;;;;;;11.25;53.45;98206.69;7860370;36;20449;-70
2021/01/21 14:46:03;;;;;;;1.98;0.95;;;;;;;10.61;54.67;98217.66;7873816;36;20496;-70
2021/01/21 14:51:06;;;;;;;3.05;1.30;;;;;;;10.58;55.30;98220.59;7874677;36;20194;-70
2021/01/21 14:56:09;;;;;;;1.83;1.00;;;;;;;10.24;56.03;98228.47;7831289;36;20492;-70
2021/01/21 15:01:11;;;;;;;1.15;1.05;;;;;;;9.99;57.06;98203.41;7851812;36;20910;-70
2021/01/21 15:06:15;;;;;;;1.92;1.02;;;;;;;10.05;56.53;98202.78;7871736;36;20493;-70
2021/01/21 15:11:17;;;;;;;1.30;1.02;;;;;;;10.13;56.53;98210.88;7865203;36;21181;-70
2021/01/21 15:16:22;;;;;;;2.38;1.30;;;;;;;9.88;57.38;98214.28;7861240;36;20159;-70
2021/01/21 15:21:26;;;;;;;1.50;1.20;;;;;;;9.87;56.96;98226.75;7871680;36;20504;-70
2021/01/21 15:26:28;;;;;;;3.08;1.33;;;;;;;9.81;57.54;98200.72;7866985;36;21115;-70
2021/01/21 15:31:31;;;;;;;1.38;1.27;;;;;;;9.91;57.09;98214.81;7856630;36;22126;-70
2021/01/21 15:36:34;;;;;;;1.73;1.30;;;;;;;9.85;56.93;98220.75;7857965;36;20166;-70
2021/01/21 15:41:37;;;;;;;1.25;1.00;;;;;;;9.68;57.69;98210.91;7857693;36;20184;-70
2021/01/21 15:46:40;;;;;;;2.60;1.10;;;;;;;9.79;57.29;98210.72;7856717;36;20753;-70
2021/01/21 15:51:44;;;;;;;2.90;1.23;;;;;;;9.69;57.45;98210.75;7857662;36;20255;-70
2021/01/21 15:56:46;;;;;;;1.45;1.33;;;;;;;9.65;57.37;98213.88;7867342;36;20543;-69
2021/01/21 16:01:49;;;;;;;1.35;1.00;;;;;;;9.62;57.51;98204.34;7869900;36;20162;-69
2021/01/21 16:06:53;;;;;;;1.63;1.23;;;;;;;9.54;57.82;98201.56;7848606;36;21121;-68
2021/01/21 16:11:55;;;;;;;1.30;1.20;;;;;;;9.59;57.22;98204.63;7871319;36;20456;-69
2021/01/21 16:16:57;;;;;;;1.98;1.48;;;;;;;9.54;57.62;98197.13;7870273;36;20158;-70
2021/01/21 16:22:01;;;;;;;1.30;1.20;;;;;;;9.47;57.48;98211.19;7874558;36;20531;-70
2021/01/21 16:27:05;;;;;;;3.45;1.23;;;;;;;9.53;57.61;98199.91;7874343;36;20160;-70
2021/01/21 16:32:07;;;;;;;2.45;1.20;;;;;;;9.61;57.47;98193.84;7875351;36;20449;-70
2021/01/21 16:37:10;;;;;;;2.58;1.08;;;;;;;9.33;57.71;98208.00;7875721;36;20190;-70
2021/01/21 16:42:15;;;;;;;0.80;0.80;;;;;;;9.20;58.11;98206.69;7880709;36;20197;-70
2021/01/21 16:47:17;;;;;;;1.00;1.00;;;;;;;9.50;57.61;98192.22;7876271;36;21835;-70
2021/01/21 16:52:21;;;;;;;1.30;1.20;;;;;;;9.45;57.49;98192.66;7882925;36;21952;-70
2021/01/21 16:57:24;;;;;;;0.95;0.95;;;;;;;9.24;58.21;98192.06;7879307;36;20223;-70
2021/01/21 17:02:27;;;;;;;0.80;0.80;;;;;;;9.41;57.47;98180.63;7879292;36;21103;-70
2021/01/21 17:07:30;;;;;;;2.90;1.08;;;;;;;9.39;57.79;98190.59;7875696;36;20193;-70
2021/01/21 17:12:32;;;;;;;1.70;1.02;;;;;;;9.17;57.88;98181.16;7880216;36;20196;-70
2021/01/21 17:17:36;;;;;;;3.90;1.20;;;;;;;9.35;57.49;98170.53;7858162;36;20507;-70
2021/01/21 17:22:39;;;;;;;1.05;1.05;;;;;;;9.41;57.21;98179.78;7882190;36;20257;-70
2021/01/21 17:27:42;;;;;;;2.42;1.02;;;;;;;9.48;57.37;98154.22;7881305;36;21491;-70
2021/01/21 17:32:45;;;;;;;2.55;1.27;;;;;;;9.55;57.11;98152.63;7877139;36;20649;-70
2021/01/21 17:37:48;;;;;;;2.50;1.35;;;;;;;9.52;57.38;98160.94;7876147;36;20288;-71
2021/01/21 17:42:51;;;;;;;1.90;1.23;;;;;;;9.58;57.26;98147.00;7874847;36;20176;-71
2021/01/21 17:47:53;;;;;;;2.60;1.20;;;;;;;9.51;57.40;98146.75;7869547;36;20464;-69
2021/01/21 17:52:57;;;;;;;1.83;1.40;;;;;;;9.73;57.14;98144.63;7869382;36;20567;-70
2021/01/21 17:57:59;;;;;;;1.73;1.55;;;;;;;9.47;58.02;98147.22;7874432;36;20163;-69
2021/01/21 18:03:02;;;;;;;1.67;1.08;;;;;;;9.49;58.33;98139.91;7853564;36;20469;-69
2021/01/21 18:08:07;;;;;;;4.05;1.63;;;;;;;9.46;58.37;98133.06;7873598;36;21000;-69
2021/01/21 18:13:11;;;;;;;1.75;1.65;;;;;;;9.44;58.83;98128.84;7875140;36;20495;-69
2021/01/21 18:18:16;;;;;;;3.03;1.02;;;;;;;9.43;58.96;98120.00;7881636;35;20386;-70
2021/01/21 18:23:20;;;;;;;5.97;1.90;;;;;;;9.65;58.81;98099.22;7875865;36;21145;-70
2021/01/21 18:28:22;;;;;;;4.22;1.92;;;;;;;9.41;59.38;98097.19;7890865;36;20134;-70
2021/01/21 18:33:25;;;;;;;4.07;2.00;;;;;;;9.58;59.46;98094.50;7885446;36;20194;-70
2021/01/21 18:38:29;;;;;;;2.00;1.05;;;;;;;9.51;59.04;98087.28;7871787;36;20494;-69
2021/01/21 18:43:31;;;;;;;4.28;1.77;;;;;;;9.62;58.86;98087.03;7876208;36;20520;-69
2021/01/21 18:48:33;;;;;;;5.72;1.80;;;;;;;9.79;58.60;98075.56;7872967;36;20227;-70
2021/01/21 18:53:37;;;;;;;2.65;1.60;;;;;;;9.82;58.13;98073.53;7878572;36;20287;-70
2021/01/21 18:58:40;;;;;;;2.20;1.33;;;;;;;9.74;58.39;98077.00;7922995;36;20320;-70
2021/01/21 19:03:42;;;;;;;2.50;1.70;;;;;;;9.72;58.59;98057.66;7925680;36;20854;-69
2021/01/21 19:08:46;;;;;;;9.00;2.42;;;;;;;9.92;58.27;98050.28;7891711;36;20476;-69
2021/01/21 19:14:03;;;;;;;2.70;1.33;;;;;;;9.80;58.13;98045.22;7890358;36;20173;-69
2021/01/21 19:19:06;;;;;;;3.30;1.80;;;;;;;9.99;58.10;98014.84;7884531;36;20573;-69
2021/01/21 19:24:10;;;;;;;2.83;1.27;;;;;;;10.12;57.85;97993.09;7860046;36;20166;-70
2021/01/21 19:29:13;;;;;;;6.57;1.95;;;;;;;9.82;58.66;97982.88;7921496;36;20614;-69
2021/01/21 19:34:15;;;;;;;2.70;1.42;;;;;;;9.79;61.22;97984.06;7988031;35;20441;-69
2021/01/21 19:39:18;;;;;;;3.13;1.75;;;;;;;9.27;64.90;97976.81;7950098;35;20287;-70
2021/01/21 19:44:21;;;;;;;3.42;1.40;;;;;;;9.26;64.90;97953.81;7949987;35;20484;-69
2021/01/21 19:49:24;;;;;;;6.38;1.50;;;;;;;9.68;64.69;97942.50;7949016;35;20392;-69
2021/01/21 19:54:28;;;;;;;4.70;1.73;;;;;;;9.63;65.00;97928.78;7946244;35;20462;-70
2021/01/21 19:59:30;;;;;;;1.70;1.40;;;;;;;9.39;65.84;97915.28;7935553;35;20137;-70
2021/01/21 20:04:32;;;;;;;4.63;1.75;;;;;;;8.93;68.07;97915.41;7949557;35;20589;-69
2021/01/21 20:09:37;;;;;;;2.78;1.90;;;;;;;8.93;69.54;97907.41;7962397;35;20558;-70
2021/01/21 20:14:42;;;;;;;1.50;1.40;;;;;;;8.92;71.06;97883.63;7948303;35;20607;-70
2021/01/21 20:19:46;;;;;;;3.67;2.20;;;;;;;8.72;72.40;97880.25;7956652;35;20235;-71
2021/01/21 20:24:49;;;;;;;5.00;1.77;;;;;;;8.58;74.61;97863.81;7960751;35;20441;-70
2021/01/21 20:29:51;;;;;;;3.35;2.10;;;;;;;8.54;75.96;97851.00;7961583;35;20167;-71
2021/01/21 20:34:54;;;;;;;3.78;1.77;;;;;;;8.33;76.58;97824.63;7960564;35;20467;-71
2021/01/21 20:39:57;;;;;;;3.78;1.52;;;;;;;8.15;77.50;97820.13;7962140;35;20547;-72
2021/01/21 20:44:59;;;;;;;3.67;1.80;;;;;;;8.17;78.25;97801.34;7902640;35;20153;-70
2021/01/21 20:50:04;;;;;;;3.65;2.10;;;;;;;8.18;78.69;97777.28;7885173;36;20606;-70
2021/01/21 20:55:10;;;;;;;3.05;1.58;;;;;;;8.01;78.86;97764.81;7883438;36;20517;-70
2021/01/21 21:00:15;;;;;;;4.57;1.95;;;;;;;7.99;78.98;97746.34;7878770;36;20512;-70
2021/01/21 21:05:18;;;;;;;5.45;2.47;;;;;;;8.05;79.58;97728.13;7860657;36;20477;-70
2021/01/21 21:10:21;;;;;;;4.63;2.95;;;;;;;8.03;79.49;97712.31;7858366;36;20303;-70
2021/01/21 21:15:25;;;;;;;5.95;2.33;;;;;;;7.93;79.88;97701.75;7886594;35;20193;-70
2021/01/21 21:20:27;;;;;;;6.93;2.92;;;;;;;8.01;80.17;97675.25;7906783;36;20453;-70
2021/01/21 21:25:30;;;;;;;5.03;2.60;;;;;;;8.04;80.40;97673.28;7907519;36;20560;-70
2021/01/21 21:30:33;;;;;;;3.28;2.80;;;;;;;8.14;80.25;97671.38;7906067;36;20600;-71
2021/01/21 21:35:36;;;;;;;3.55;2.83;;;;;;;8.18;80.42;97660.28;7877902;36;20149;-70
2021/01/21 21:40:39;;;;;;;6.35;3.60;;;;;;;8.29;80.52;97634.44;7877950;36;20197;-70
2021/01/21 21:45:42;;;;;;;8.48;3.10;;;;;;;8.38;80.85;97610.38;7896796;36;21214;-69
2021/01/21 21:50:45;;;;;;;3.70;2.88;;;;;;;8.40;80.30;97588.97;7875787;36;22067;-70
2021/01/21 21:55:48;;;;;;;3.75;2.90;;;;;;;8.49;81.20;97581.88;7900177;36;20471;-70
2021/01/21 22:00:51;;;;;;;3.75;2.60;;;;;;;8.57;81.07;97572.09;7899754;36;21129;-71
2021/01/21 22:05:53;;;;;;;4.63;2.92;;;;;;;8.64;81.40;97581.13;7879201;36;20150;-70
2021/01/21 22:10:57;;;;;;;4.15;2.53;;;;;;;8.74;81.37;97545.56;7880959;36;20509;-71
2021/01/21 22:15:59;;;;;;;2.97;2.60;;;;;;;8.76;81.51;97533.78;7847105;36;20470;-71
2021/01/21 22:21:03;;;;;;;2.58;2.17;;;;;;;8.79;81.48;97506.84;7856748;36;20692;-71
2021/01/21 22:26:06;;;;;;;2.58;1.98;;;;;;;8.70;82.34;97515.78;7894650;36;20521;-70
2021/01/21 22:31:08;;;;;;;3.28;1.90;;;;;;;8.90;81.79;97511.84;7894605;36;20193;-71
2021/01/21 22:36:11;;;;;;;3.63;2.05;;;;;;;8.89;82.12;97494.22;7895141;36;20712;-71
2021/01/21 22:41:14;;;;;;;3.92;2.20;;;;;;;9.04;81.64;97474.94;7894868;36;20566;-70
2021/01/21 22:46:17;;;;;;;1.65;1.45;;;;;;;8.96;81.85;97480.25;7895493;36;20710;-71
2021/01/21 22:51:19;;;;;;;1.77;1.65;;;;;;;9.16;82.30;97480.78;7896024;36;20142;-71
2021/01/21 22:56:23;;;;;;;2.05;1.77;;;;;;;9.21;81.78;97460.66;7873714;36;20469;-71
2021/01/21 23:01:25;;;;;;;3.63;1.80;;;;;;;9.32;81.61;97438.19;7860493;36;20745;-71
2021/01/21 23:06:28;;;;;;;1.80;1.65;;;;;;;9.35;81.68;97440.50;7879433;36;20463;-70
2021/01/21 23:11:31;;;;;;;1.73;1.63;;;;;;;9.27;81.85;97413.88;7893750;36;20145;-71
2021/01/21 23:16:34;;;;;;;1.63;1.50;;;;;;;9.48;81.73;97418.69;7893679;36;20448;-71
2021/01/21 23:21:37;;;;;;;1.65;1.55;;;;;;;9.60;81.55;97414.69;7893936;36;20886;-72
2021/01/21 23:26:40;;;;;;;3.10;1.85;;;;;;;9.68;81.59;97419.16;7891731;36;20189;-69
2021/01/21 23:31:43;;;;;;;1.23;1.13;;;;;;;9.79;80.83;97390.34;7874682;36;20472;-69
2021/01/21 23:36:46;;;;;;;1.15;0.95;;;;;;;10.05;80.18;97380.41;7833383;36;20495;-70
2021/01/21 23:41:50;;;;;;;1.00;1.00;;;;;;;10.36;79.33;97394.63;7949441;36;21078;-70
2021/01/21 23:46:52;;;;;;;1.40;1.10;;;;;;;10.53;78.36;97371.38;7899723;36;20820;-69
2021/01/21 23:51:54;;;;;;;1.10;1.08;;;;;;;10.82;77.74;97373.34;7893260;36;20967;-70
2021/01/21 23:56:58;;;;;;;1.05;0.82;;;;;;;10.76;76.68;97366.06;7892506;36;20618;-70
